createdAt,value
2019-02-12T00:01:04.391Z,3.03
2019-02-12T00:03:30.771Z,3.20
2019-02-12T00:05:57.329Z,3.23
2019-02-12T00:08:23.957Z,3.33
2019-02-12T00:10:50.509Z,2.57
2019-02-12T00:13:16.912Z,2.57
2019-02-12T00:15:43.422Z,3.10
2019-02-12T00:18:09.813Z,2.47
2019-02-12T00:20:36.340Z,2.80
2019-02-12T00:23:02.832Z,3.77
2019-02-12T00:25:29.413Z,2.87
2019-02-12T00:27:55.850Z,2.70
2019-02-12T00:30:22.226Z,2.70
2019-02-12T00:32:48.752Z,3.03
2019-02-12T00:35:15.208Z,2.50
2019-02-12T00:37:41.751Z,2.50
2019-02-12T00:40:08.432Z,3.60
2019-02-12T00:42:34.919Z,5.90
2019-02-12T00:45:01.455Z,3.77
2019-02-12T00:47:27.969Z,3.47
2019-02-12T00:49:54.332Z,4.67
2019-02-12T00:52:20.857Z,7.13
2019-02-12T00:54:47.154Z,8.20
2019-02-12T00:57:13.447Z,5.77
2019-02-12T00:59:39.888Z,3.87
2019-02-12T01:02:06.193Z,4.43
2019-02-12T01:04:32.757Z,4.33
2019-02-12T01:06:59.245Z,3.60
2019-02-12T01:09:25.700Z,3.57
2019-02-12T01:11:52.313Z,3.37
2019-02-12T01:14:18.829Z,4.27
2019-02-12T01:16:45.226Z,2.77
2019-02-12T01:19:11.757Z,2.73
2019-02-12T01:21:38.453Z,3.80
2019-02-12T01:24:04.941Z,2.73
2019-02-12T01:26:31.335Z,2.77
2019-02-12T01:28:57.846Z,2.70
2019-02-12T01:31:24.391Z,3.70
2019-02-12T01:33:50.913Z,2.63
2019-02-12T01:36:17.369Z,3.70
2019-02-12T01:38:43.783Z,4.00
2019-02-12T01:41:10.200Z,3.47
2019-02-12T01:43:36.710Z,3.40
2019-02-12T01:46:03.270Z,4.63
2019-02-12T01:48:30.117Z,3.60
2019-02-12T01:50:58.623Z,3.67
2019-02-12T01:53:25.280Z,4.97
2019-02-12T01:55:51.665Z,3.50
2019-02-12T01:58:18.394Z,3.63
2019-02-12T02:00:45.027Z,2.70
2019-02-12T02:03:11.415Z,3.43
2019-02-12T02:05:38.026Z,3.40
2019-02-12T02:08:04.612Z,3.13
2019-02-12T02:10:31.019Z,3.23
2019-02-12T02:12:57.508Z,2.97
2019-02-12T02:15:24.147Z,2.97
2019-02-12T02:17:50.611Z,4.73
2019-02-12T02:20:17.104Z,3.37
2019-02-12T02:22:43.442Z,3.50
2019-02-12T02:25:10.973Z,3.53
2019-02-12T02:27:37.553Z,5.57
2019-02-12T02:30:06.928Z,4.00
2019-02-12T02:32:33.315Z,4.67
2019-02-12T02:34:59.703Z,4.17
2019-02-12T02:37:26.026Z,4.47
2019-02-12T02:39:52.453Z,5.37
2019-02-12T02:42:18.974Z,5.13
2019-02-12T02:44:45.332Z,4.50
2019-02-12T02:47:11.738Z,4.00
2019-02-12T02:49:38.112Z,3.70
2019-02-12T02:52:04.503Z,3.23
2019-02-12T02:54:30.742Z,3.37
2019-02-12T02:56:57.162Z,4.30
2019-02-12T02:59:23.424Z,3.00
2019-02-12T03:01:49.692Z,3.23
2019-02-12T03:04:15.981Z,3.60
2019-02-12T03:06:42.232Z,3.30
2019-02-12T03:09:08.613Z,3.27
2019-02-12T03:11:34.968Z,3.50
2019-02-12T03:14:01.422Z,3.83
2019-02-12T03:16:27.705Z,4.37
2019-02-12T03:18:53.951Z,5.27
2019-02-12T03:21:20.401Z,4.77
2019-02-12T03:23:46.685Z,4.03
2019-02-12T03:26:13.037Z,3.87
2019-02-12T03:28:39.515Z,4.87
2019-02-12T03:31:05.889Z,5.23
2019-02-12T03:33:32.275Z,5.60
2019-02-12T03:35:58.526Z,8.20
2019-02-12T03:38:24.894Z,9.60
2019-02-12T03:40:51.308Z,6.47
2019-02-12T03:43:17.600Z,6.83
2019-02-12T03:45:43.845Z,5.17
2019-02-12T03:48:10.316Z,4.73
2019-02-12T03:50:36.669Z,3.57
2019-02-12T03:53:03.037Z,4.33
2019-02-12T03:55:29.517Z,4.53
2019-02-12T03:57:56.033Z,4.30
2019-02-12T04:00:22.584Z,4.03
2019-02-12T04:03:00.589Z,3.40
2019-02-12T04:05:27.076Z,3.73
2019-02-12T04:07:53.331Z,3.80
2019-02-12T04:10:19.705Z,3.57
2019-02-12T04:12:46.249Z,4.17
2019-02-12T04:15:12.549Z,3.67
2019-02-12T04:17:38.782Z,3.70
2019-02-12T04:20:05.259Z,3.30
2019-02-12T04:22:31.620Z,3.00
2019-02-12T04:24:58.012Z,2.87
2019-02-12T04:27:24.337Z,3.23
2019-02-12T04:29:50.630Z,3.10
2019-02-12T04:32:17.091Z,3.53
2019-02-12T04:34:43.259Z,3.20
2019-02-12T04:37:09.505Z,3.00
2019-02-12T04:39:35.784Z,3.20
2019-02-12T04:42:02.148Z,3.33
2019-02-12T04:44:28.510Z,3.07
2019-02-12T04:46:54.777Z,3.30
2019-02-12T04:49:21.119Z,4.60
2019-02-12T04:51:47.322Z,3.90
2019-02-12T04:54:13.697Z,3.13
2019-02-12T04:56:40.080Z,3.93
2019-02-12T04:59:06.574Z,3.60
2019-02-12T05:01:32.852Z,3.67
2019-02-12T05:03:59.226Z,4.70
2019-02-12T05:06:25.528Z,3.50
2019-02-12T05:09:11.527Z,4.00
2019-02-12T05:11:38.968Z,2.97
2019-02-12T05:14:05.257Z,3.17
2019-02-12T05:16:31.546Z,3.13
2019-02-12T05:18:57.891Z,5.80
2019-02-12T05:21:24.280Z,4.23
2019-02-12T05:23:50.517Z,4.60
2019-02-12T05:26:16.796Z,4.20
2019-02-12T05:28:43.176Z,4.53
2019-02-12T05:31:09.494Z,4.17
2019-02-12T05:33:35.737Z,4.30
2019-02-12T05:36:02.020Z,3.80
2019-02-12T05:38:28.294Z,4.23
2019-02-12T05:40:54.766Z,3.30
2019-02-12T05:43:21.120Z,4.53
2019-02-12T05:45:47.344Z,3.80
2019-02-12T05:48:13.609Z,5.17
2019-02-12T05:50:39.908Z,5.40
2019-02-12T05:53:06.766Z,6.70
2019-02-12T05:55:33.035Z,4.87
2019-02-12T05:57:59.320Z,5.20
2019-02-12T06:00:27.574Z,6.30
2019-02-12T06:02:53.847Z,4.83
2019-02-12T06:05:24.857Z,5.93
2019-02-12T06:07:51.297Z,5.13
2019-02-12T06:10:17.563Z,5.93
2019-02-12T06:12:43.822Z,5.33
2019-02-12T06:15:10.382Z,4.73
2019-02-12T06:17:36.669Z,5.12
2019-02-12T06:20:04.860Z,4.03
2019-02-12T06:22:31.220Z,4.00
2019-02-12T06:24:57.494Z,3.97
2019-02-12T06:27:23.868Z,3.73
2019-02-12T06:29:50.134Z,4.57
2019-02-12T06:32:17.323Z,4.80
2019-02-12T06:34:43.558Z,4.33
2019-02-12T06:37:09.945Z,3.90
2019-02-12T06:39:36.234Z,3.47
2019-02-12T06:42:02.896Z,3.97
2019-02-12T06:44:29.181Z,3.73
2019-02-12T06:46:55.547Z,3.53
2019-02-12T06:49:21.909Z,3.60
2019-02-12T06:51:48.376Z,3.30
2019-02-12T06:54:14.759Z,3.80
2019-02-12T06:56:41.241Z,3.50
2019-02-12T06:59:07.801Z,6.27
2019-02-12T07:01:34.233Z,4.23
2019-02-12T07:04:00.604Z,3.60
2019-02-12T07:06:42.893Z,3.87
2019-02-12T07:09:24.785Z,3.50
2019-02-12T07:12:11.773Z,3.33
2019-02-12T07:14:57.066Z,3.87
2019-02-12T07:17:42.190Z,4.10
2019-02-12T07:20:18.045Z,4.00
2019-02-12T07:23:21.242Z,4.27
2019-02-12T07:25:49.049Z,4.30
2019-02-12T07:28:28.035Z,4.13
2019-02-12T07:31:13.422Z,4.60
2019-02-12T07:33:46.065Z,4.43
2019-02-12T07:36:30.601Z,4.47
2019-02-12T07:39:09.510Z,4.47
2019-02-12T07:41:45.489Z,4.20
2019-02-12T07:44:18.449Z,7.37
2019-02-12T07:46:56.386Z,6.47
2019-02-12T07:49:29.266Z,6.07
2019-02-12T07:52:17.310Z,6.07
2019-02-12T07:54:53.347Z,6.87
2019-02-12T07:57:35.567Z,7.23
2019-02-12T08:00:08.658Z,6.03
2019-02-12T08:02:44.697Z,7.87
2019-02-12T08:05:45.443Z,7.17
2019-02-12T08:08:18.240Z,6.40
2019-02-12T08:11:03.228Z,6.03
2019-02-12T08:14:06.716Z,5.43
2019-02-12T08:17:09.989Z,5.30
2019-02-12T08:19:54.912Z,5.00
2019-02-12T08:22:41.739Z,5.23
2019-02-12T08:25:26.799Z,7.87
2019-02-12T08:28:05.825Z,6.57
2019-02-12T08:30:39.293Z,5.87
2019-02-12T08:33:18.135Z,6.00
2019-02-12T08:36:03.314Z,6.60
2019-02-12T08:38:33.401Z,8.53
2019-02-12T08:41:06.544Z,7.20
2019-02-12T08:44:00.265Z,7.17
2019-02-12T08:46:57.149Z,6.03
2019-02-12T08:49:33.344Z,6.37
2019-02-12T08:52:06.525Z,8.50
2019-02-12T08:54:36.598Z,9.73
2019-02-12T08:57:33.846Z,10.60
2019-02-12T09:00:03.905Z,10.07
2019-02-12T09:02:50.604Z,7.37
2019-02-12T09:05:38.651Z,7.20
2019-02-12T09:08:17.596Z,5.70
2019-02-12T09:10:59.516Z,4.70
2019-02-12T09:13:41.677Z,8.13
2019-02-12T09:16:17.624Z,9.60
2019-02-12T09:19:02.544Z,8.13
2019-02-12T09:21:52.283Z,10.33
2019-02-12T09:24:34.528Z,9.00
2019-02-12T09:27:10.318Z,7.70
2019-02-12T09:29:40.374Z,8.30
2019-02-12T09:32:48.097Z,12.53
2019-02-12T09:35:18.141Z,4.77
2019-02-12T09:37:48.309Z,7.37
2019-02-12T09:40:27.141Z,8.50
2019-02-12T09:43:16.870Z,9.00
2019-02-12T09:46:07.322Z,7.60
2019-02-12T09:48:52.511Z,9.90
2019-02-12T09:51:37.325Z,8.20
2019-02-12T09:54:26.868Z,9.50
2019-02-12T09:57:03.259Z,6.00
2019-02-12T09:59:39.423Z,6.03
2019-02-12T10:02:21.494Z,9.13
2019-02-12T10:05:09.063Z,4.03
2019-02-12T10:07:42.164Z,6.33
2019-02-12T10:10:27.937Z,8.50
2019-02-12T10:12:58.309Z,5.35
2019-02-12T10:15:42.920Z,4.67
2019-02-12T10:18:28.321Z,5.60
2019-02-12T10:21:14.815Z,5.67
2019-02-12T10:24:18.941Z,6.96
2019-02-12T10:27:14.362Z,5.37
2019-02-12T10:29:53.503Z,5.55
2019-02-12T10:32:19.572Z,5.53
2019-02-12T10:34:45.951Z,6.97
2019-02-12T10:37:12.334Z,4.75
2019-02-12T10:39:39.404Z,4.65
2019-02-12T10:42:05.893Z,5.05
2019-02-12T10:44:32.145Z,5.53
2019-02-12T10:46:58.553Z,9.00
2019-02-12T10:49:24.931Z,5.47
2019-02-12T10:51:53.953Z,6.40
2019-02-12T10:54:27.727Z,7.17
2019-02-12T10:56:48.992Z,5.87
2019-02-12T10:59:15.291Z,3.87
2019-02-12T11:01:43.879Z,4.20
2019-02-12T11:04:10.154Z,6.17
2019-02-12T11:06:38.721Z,5.67
2019-02-12T11:09:05.182Z,6.47
2019-02-12T11:11:31.803Z,4.67
2019-02-12T11:13:58.071Z,5.00
2019-02-12T11:16:24.907Z,6.93
2019-02-12T11:18:51.091Z,3.20
2019-02-12T11:21:17.351Z,5.33
2019-02-12T11:23:43.725Z,5.65
2019-02-12T11:26:10.114Z,7.70
2019-02-12T11:28:36.420Z,6.12
2019-02-12T11:31:03.030Z,7.83
2019-02-12T11:33:29.401Z,5.53
2019-02-12T11:35:55.675Z,9.47
2019-02-12T11:38:24.419Z,6.75
2019-02-12T11:40:50.935Z,3.87
2019-02-12T11:43:17.546Z,6.10
2019-02-12T11:45:43.801Z,4.63
2019-02-12T11:48:12.292Z,4.07
2019-02-12T11:50:38.774Z,5.77
2019-02-12T11:53:05.224Z,6.13
2019-02-12T11:55:31.559Z,5.27
2019-02-12T11:57:57.769Z,6.60
2019-02-12T12:00:28.102Z,6.40
2019-02-12T12:02:54.622Z,6.17
2019-02-12T12:05:22.913Z,7.13
2019-02-12T12:07:49.158Z,5.53
2019-02-12T12:10:15.597Z,6.10
2019-02-12T12:12:41.977Z,3.20
2019-02-12T12:15:17.968Z,6.73
2019-02-12T12:17:47.284Z,6.73
2019-02-12T12:20:14.396Z,7.03
2019-02-12T12:22:40.914Z,7.50
2019-02-12T12:25:09.146Z,4.57
2019-02-12T12:27:35.522Z,5.57
2019-02-12T12:30:01.876Z,5.57
2019-02-12T12:32:32.985Z,5.80
2019-02-12T12:34:59.503Z,6.60
2019-02-12T12:37:28.423Z,3.13
2019-02-12T12:39:54.964Z,8.70
2019-02-12T12:42:21.368Z,6.40
2019-02-12T12:44:47.590Z,5.10
2019-02-12T12:47:13.947Z,7.23
2019-02-12T12:49:40.221Z,6.40
2019-02-12T12:52:06.729Z,5.30
2019-02-12T12:54:34.259Z,4.90
2019-02-12T12:57:00.843Z,5.63
2019-02-12T12:59:27.335Z,6.33
2019-02-12T13:01:53.703Z,5.20
2019-02-12T13:04:20.081Z,6.03
2019-02-12T13:06:46.440Z,7.53
2019-02-12T13:09:12.737Z,6.87
2019-02-12T13:11:43.782Z,7.43
2019-02-12T13:14:10.110Z,8.77
2019-02-12T13:16:36.482Z,6.13
2019-02-12T13:19:05.780Z,7.60
2019-02-12T13:21:35.190Z,4.03
2019-02-12T13:24:05.345Z,5.07
2019-02-12T13:26:31.598Z,5.93
2019-02-12T13:28:57.854Z,4.07
2019-02-12T13:31:24.352Z,3.37
2019-02-12T13:33:50.644Z,4.23
2019-02-12T13:36:17.108Z,4.83
2019-02-12T13:38:43.417Z,4.87
2019-02-12T13:41:12.833Z,5.03
2019-02-12T13:43:39.133Z,5.40
2019-02-12T13:46:05.732Z,3.40
2019-02-12T13:48:32.133Z,3.77
2019-02-12T13:51:01.917Z,3.93
2019-02-12T13:53:28.185Z,6.07
2019-02-12T13:55:57.756Z,4.50
2019-02-12T13:58:24.252Z,5.90
2019-02-12T14:00:50.537Z,3.03
2019-02-12T14:03:22.308Z,9.87
2019-02-12T14:05:45.200Z,4.77
2019-02-12T14:08:11.606Z,5.00
2019-02-12T14:10:37.854Z,3.30
2019-02-12T14:13:04.218Z,5.30
2019-02-12T14:15:32.045Z,5.67
2019-02-12T14:18:05.128Z,5.70
2019-02-12T14:20:31.579Z,5.47
2019-02-12T14:22:59.762Z,6.57
2019-02-12T14:25:26.158Z,4.70
2019-02-12T14:27:52.503Z,3.87
2019-02-12T14:30:20.650Z,5.17
2019-02-12T14:32:48.359Z,8.03
2019-02-12T14:35:14.854Z,5.50
2019-02-12T14:37:41.080Z,4.93
2019-02-12T14:40:16.515Z,5.03
2019-02-12T14:42:42.986Z,4.47
2019-02-12T14:45:14.972Z,4.47
2019-02-12T14:47:41.565Z,3.90
2019-02-12T14:50:10.273Z,7.03
2019-02-12T14:52:37.015Z,3.93
2019-02-12T14:55:03.671Z,4.03
2019-02-12T14:57:29.940Z,4.83
2019-02-12T14:59:56.556Z,3.10
2019-02-12T15:02:22.814Z,6.73
2019-02-12T15:04:49.139Z,3.83
2019-02-12T15:07:15.633Z,4.40
2019-02-12T15:09:42.025Z,6.63
2019-02-12T15:12:08.332Z,7.67
2019-02-12T15:14:34.603Z,6.77
2019-02-12T15:17:00.971Z,6.50
2019-02-12T15:19:27.281Z,7.77
2019-02-12T15:21:53.704Z,5.23
2019-02-12T15:24:20.217Z,4.50
2019-02-12T15:26:50.255Z,4.60
2019-02-12T15:29:16.496Z,4.50
2019-02-12T15:31:42.801Z,3.47
2019-02-12T15:34:09.214Z,4.77
2019-02-12T15:36:35.558Z,4.77
2019-02-12T15:39:04.552Z,4.17
2019-02-12T15:41:30.823Z,3.23
2019-02-12T15:43:57.199Z,5.10
2019-02-12T15:46:23.641Z,5.93
2019-02-12T15:48:50.104Z,7.33
2019-02-12T15:51:16.348Z,7.37
2019-02-12T15:53:42.725Z,4.70
2019-02-12T15:56:09.202Z,5.40
2019-02-12T15:58:35.517Z,6.60
2019-02-12T16:01:02.349Z,5.23
2019-02-12T16:03:29.870Z,5.53
2019-02-12T16:05:57.188Z,4.20
2019-02-12T16:08:24.429Z,3.43
2019-02-12T16:10:50.693Z,3.17
2019-02-12T16:13:16.928Z,2.80
2019-02-12T16:15:45.192Z,2.87
2019-02-12T16:18:11.590Z,3.73
2019-02-12T16:20:37.929Z,3.40
2019-02-12T16:23:04.173Z,3.67
2019-02-12T16:25:30.550Z,3.20
2019-02-12T16:27:57.066Z,3.20
2019-02-12T16:30:23.409Z,2.80
2019-02-12T16:32:49.799Z,2.80
2019-02-12T16:35:16.822Z,2.70
2019-02-12T16:37:43.272Z,2.87
2019-02-12T16:40:11.667Z,2.60
2019-02-12T16:42:38.130Z,1.87
2019-02-12T16:45:10.632Z,2.00
2019-02-12T16:47:37.002Z,1.73
2019-02-12T16:50:05.791Z,2.37
2019-02-12T16:52:32.101Z,1.90
2019-02-12T16:54:58.484Z,1.80
2019-02-12T16:57:27.238Z,1.63
2019-02-12T16:59:53.750Z,1.90
2019-02-12T17:02:20.017Z,1.73
2019-02-12T17:04:46.448Z,1.90
2019-02-12T17:07:12.692Z,2.40
2019-02-12T17:09:39.098Z,2.13
2019-02-12T17:12:05.409Z,2.10
2019-02-12T17:14:31.818Z,3.77
2019-02-12T17:16:58.325Z,3.10
2019-02-12T17:19:24.693Z,3.43
2019-02-12T17:21:50.974Z,2.70
2019-02-12T17:24:17.567Z,3.27
2019-02-12T17:26:43.760Z,3.30
2019-02-12T17:29:10.114Z,2.83
2019-02-12T17:31:36.559Z,4.03
2019-02-12T17:34:02.962Z,3.13
2019-02-12T17:36:29.322Z,2.93
2019-02-12T17:38:55.603Z,3.57
2019-02-12T17:41:22.075Z,3.50
2019-02-12T17:43:48.510Z,3.20
2019-02-12T17:46:15.918Z,3.03
2019-02-12T17:48:42.467Z,3.33
2019-02-12T17:51:08.730Z,3.10
2019-02-12T17:53:35.241Z,2.80
2019-02-12T17:56:01.735Z,3.10
2019-02-12T17:58:28.281Z,3.60
2019-02-12T18:00:54.694Z,3.43
2019-02-12T18:03:20.937Z,3.17
2019-02-12T18:05:47.257Z,3.20
2019-02-12T18:08:13.529Z,2.60
2019-02-12T18:10:39.998Z,2.70
2019-02-12T18:13:06.417Z,2.90
2019-02-12T18:15:32.782Z,2.30
2019-02-12T18:17:59.125Z,2.63
2019-02-12T18:20:26.859Z,2.37
2019-02-12T18:22:53.335Z,2.20
2019-02-12T18:25:19.676Z,2.17
2019-02-12T18:27:46.041Z,2.70
2019-02-12T18:30:16.200Z,1.87
2019-02-12T18:32:42.834Z,3.53
2019-02-12T18:35:09.177Z,3.77
2019-02-12T18:37:35.510Z,2.40
2019-02-12T18:40:04.083Z,3.80
2019-02-12T18:42:30.355Z,2.60
2019-02-12T18:44:56.874Z,2.83
2019-02-12T18:47:23.363Z,3.77
2019-02-12T18:49:49.829Z,3.00
2019-02-12T18:52:16.222Z,3.03
2019-02-12T18:54:42.496Z,2.90
2019-02-12T18:57:08.876Z,2.70
2019-02-12T18:59:35.515Z,2.33
2019-02-12T19:02:01.976Z,2.33
2019-02-12T19:04:28.381Z,3.10
2019-02-12T19:06:54.964Z,2.30
2019-02-12T19:09:21.458Z,2.20
2019-02-12T19:11:54.551Z,2.13
2019-02-12T19:14:23.119Z,2.60
2019-02-12T19:16:54.550Z,2.62
2019-02-12T19:19:21.083Z,2.57
2019-02-12T19:21:47.471Z,2.20
2019-02-12T19:24:13.855Z,5.60
2019-02-12T19:26:40.346Z,3.13
2019-02-12T19:29:06.776Z,5.00
2019-02-12T19:31:33.104Z,4.10
2019-02-12T19:33:59.620Z,4.20
2019-02-12T19:36:25.902Z,5.17
2019-02-12T19:38:52.626Z,5.93
2019-02-12T19:41:18.862Z,6.07
2019-02-12T19:43:47.952Z,5.40
2019-02-12T19:46:14.772Z,5.27
2019-02-12T19:48:41.157Z,5.40
2019-02-12T19:51:07.534Z,4.00
2019-02-12T19:53:34.082Z,3.47
2019-02-12T19:56:00.799Z,3.90
2019-02-12T19:58:47.192Z,3.47
2019-02-12T20:01:13.613Z,4.20
2019-02-12T20:03:40.239Z,9.80
2019-02-12T20:06:06.643Z,15.53
2019-02-12T20:08:33.094Z,10.80
2019-02-12T20:10:59.438Z,9.07
2019-02-12T20:13:25.995Z,8.83
2019-02-12T20:15:52.382Z,7.90
2019-02-12T20:18:20.252Z,7.87
2019-02-12T20:20:46.684Z,6.83
2019-02-12T20:23:13.060Z,6.27
2019-02-12T20:25:39.477Z,7.37
2019-02-12T20:28:06.051Z,5.77
2019-02-12T20:30:32.459Z,5.17
2019-02-12T20:32:58.955Z,4.63
2019-02-12T20:35:25.206Z,4.87
2019-02-12T20:37:53.499Z,3.50
2019-02-12T20:40:20.109Z,5.40
2019-02-12T20:42:46.451Z,3.03
2019-02-12T20:45:14.429Z,3.00
2019-02-12T20:47:40.976Z,4.20
2019-02-12T20:50:14.069Z,5.40
2019-02-12T20:52:40.638Z,8.20
2019-02-12T20:55:07.929Z,20.63
2019-02-12T20:57:34.371Z,16.50
2019-02-12T21:00:00.826Z,13.20
2019-02-12T21:02:27.077Z,15.83
2019-02-12T21:04:53.482Z,12.73
2019-02-12T21:07:19.716Z,10.53
2019-02-12T21:09:46.327Z,9.27
2019-02-12T21:12:12.570Z,9.73
2019-02-12T21:14:38.961Z,7.87
2019-02-12T21:17:05.404Z,7.27
2019-02-12T21:19:31.678Z,6.37
2019-02-12T21:21:58.035Z,5.97
2019-02-12T21:24:24.514Z,5.77
2019-02-12T21:26:51.066Z,5.73
2019-02-12T21:29:17.435Z,6.07
2019-02-12T21:31:43.701Z,6.00
2019-02-12T21:34:10.302Z,6.30
2019-02-12T21:36:36.680Z,5.67
2019-02-12T21:39:05.083Z,5.27
2019-02-12T21:41:31.708Z,5.00
2019-02-12T21:43:58.062Z,4.53
2019-02-12T21:46:24.521Z,6.30
2019-02-12T21:48:51.087Z,8.73
2019-02-12T21:51:17.419Z,9.83
2019-02-12T21:53:43.748Z,7.07
2019-02-12T21:56:10.111Z,8.47
2019-02-12T21:58:36.346Z,6.47
2019-02-12T22:01:02.870Z,6.57
2019-02-12T22:03:30.495Z,6.97
2019-02-12T22:05:56.899Z,7.63
2019-02-12T22:08:23.342Z,7.17
2019-02-12T22:10:49.662Z,6.63
2019-02-12T22:13:16.073Z,5.00
2019-02-12T22:15:42.535Z,5.30
2019-02-12T22:18:08.813Z,5.50
2019-02-12T22:20:35.078Z,4.90
2019-02-12T22:23:02.065Z,8.53
2019-02-12T22:25:28.455Z,5.30
2019-02-12T22:27:54.734Z,6.33
2019-02-12T22:30:23.369Z,5.20
2019-02-12T22:32:50.043Z,5.43
2019-02-12T22:35:16.666Z,4.50
2019-02-12T22:37:43.010Z,4.57
2019-02-12T22:40:13.950Z,4.00
2019-02-12T22:42:40.356Z,4.30
2019-02-12T22:45:09.740Z,4.00
2019-02-12T22:47:36.227Z,4.60
2019-02-12T22:50:07.245Z,4.87
2019-02-12T22:52:33.709Z,5.10
2019-02-12T22:54:59.929Z,4.17
2019-02-12T22:57:26.406Z,4.27
2019-02-12T22:59:52.924Z,4.63
2019-02-12T23:02:19.272Z,4.80
2019-02-12T23:04:45.662Z,5.03
2019-02-12T23:07:12.161Z,7.43
2019-02-12T23:09:48.177Z,6.73
2019-02-12T23:12:14.901Z,5.13
2019-02-12T23:14:41.264Z,4.70
2019-02-12T23:17:07.853Z,4.50
2019-02-12T23:19:34.299Z,4.53
2019-02-12T23:22:02.494Z,4.40
2019-02-12T23:24:48.268Z,4.97
2019-02-12T23:27:14.530Z,4.17
2019-02-12T23:29:40.922Z,6.13
2019-02-12T23:32:07.389Z,4.47
2019-02-12T23:34:33.990Z,5.70
2019-02-12T23:37:00.374Z,4.20
2019-02-12T23:39:26.647Z,4.97
2019-02-12T23:41:53.105Z,6.27
2019-02-12T23:44:19.502Z,5.63
2019-02-12T23:46:45.769Z,5.23
2019-02-12T23:49:12.194Z,5.13
2019-02-12T23:51:38.761Z,7.27
2019-02-12T23:54:05.091Z,5.80
2019-02-12T23:56:31.614Z,5.07
2019-02-12T23:59:00.074Z,4.80
